Time;durP1;ratioP1;P1;durP2;ratioP2;P2;SDS_P1;SDS_P2;PMS_P1;PMS_P2;Temp;Humidity;BMP_temperature;BMP_pressure;BME280_temperature;BME280_humidity;BME280_pressure;Samples;Min_cycle;Max_cycle;Signal;HPM_P1;HPM_P2
2023/08/04 00:00:09;;;;;;;3.47;2.70;;;;;;;;;;5054114;28;20069;-63
2023/08/04 00:02:36;;;;;;;5.80;2.80;;;;;;;;;;5054521;28;20037;-59
2023/08/04 00:05:01;;;;;;;3.78;2.78;;;;;;;;;;5023232;28;20047;-59
2023/08/04 00:07:27;;;;;;;3.33;2.45;;;;;;;;;;5034131;28;20457;-59
2023/08/04 00:09:52;;;;;;;4.88;2.67;;;;;;;;;;5034278;28;20132;-59
2023/08/04 00:12:18;;;;;;;3.70;2.72;;;;;;;;;;5033776;28;20484;-59
2023/08/04 00:14:45;;;;;;;7.70;3.13;;;;;;;;;;5033945;28;20378;-57
2023/08/04 00:17:10;;;;;;;4.50;2.85;;;;;;;;;;5034260;28;20030;-57
2023/08/04 00:19:35;;;;;;;4.10;2.63;;;;;;;;;;5033914;28;20044;-57
2023/08/04 00:22:01;;;;;;;4.30;2.72;;;;;;;;;;5034146;28;20025;-57
2023/08/04 00:24:26;;;;;;;4.45;2.53;;;;;;;;;;5034373;28;20127;-57
2023/08/04 00:26:51;;;;;;;5.68;2.70;;;;;;;;;;5033795;28;20037;-57
2023/08/04 00:29:17;;;;;;;4.95;2.42;;;;;;;;;;5032602;28;20057;-58
2023/08/04 00:31:42;;;;;;;4.05;2.63;;;;;;;;;;5016311;28;20465;-58
2023/08/04 00:34:07;;;;;;;5.70;2.65;;;;;;;;;;5033518;28;20084;-58
2023/08/04 00:36:34;;;;;;;3.55;2.47;;;;;;;;;;5033727;28;20026;-58
2023/08/04 00:38:59;;;;;;;3.55;2.50;;;;;;;;;;5033837;28;20500;-57
2023/08/04 00:41:25;;;;;;;7.05;2.85;;;;;;;;;;5016171;28;20032;-60
2023/08/04 00:43:50;;;;;;;3.70;2.42;;;;;;;;;;5033775;28;20029;-60
2023/08/04 00:46:16;;;;;;;4.65;2.53;;;;;;;;;;5033376;28;20443;-60
2023/08/04 00:48:42;;;;;;;7.50;3.10;;;;;;;;;;5015836;28;20032;-60
2023/08/04 00:51:07;;;;;;;6.82;3.20;;;;;;;;;;5033366;28;20032;-60
2023/08/04 00:53:32;;;;;;;4.13;2.45;;;;;;;;;;4999356;28;20100;-60
2023/08/04 00:55:58;;;;;;;6.57;3.03;;;;;;;;;;5033402;28;20454;-60
2023/08/04 00:58:23;;;;;;;6.00;2.60;;;;;;;;;;5015693;28;20021;-60
2023/08/04 01:00:48;;;;;;;3.78;2.28;;;;;;;;;;5015346;28;20033;-60
2023/08/04 01:03:14;;;;;;;5.63;3.20;;;;;;;;;;5033337;28;20021;-60
2023/08/04 01:05:58;;;;;;;7.68;2.95;;;;;;;;;;5016256;28;20116;-60
2023/08/04 01:08:26;;;;;;;6.10;2.60;;;;;;;;;;5033394;28;20382;-58
2023/08/04 01:10:56;;;;;;;4.38;2.70;;;;;;;;;;5000248;28;20039;-58
2023/08/04 01:13:22;;;;;;;;;;;;;;;;;;5033650;28;20037;-58
2023/08/04 01:15:49;;;;;;;3.83;2.42;;;;;;;;;;5033812;28;19909;-58
2023/08/04 01:18:18;;;;;;;5.50;2.95;;;;;;;;;;5033120;28;20026;-58
2023/08/04 01:20:44;;;;;;;5.40;3.22;;;;;;;;;;5033354;28;20035;-58
2023/08/04 01:23:09;;;;;;;7.00;3.88;;;;;;;;;;5015372;28;20104;-58
2023/08/04 01:25:35;;;;;;;6.55;3.17;;;;;;;;;;5016204;28;20406;-58
2023/08/04 01:28:04;;;;;;;8.63;2.80;;;;;;;;;;5015306;28;20022;-58
2023/08/04 01:30:30;;;;;;;6.38;3.35;;;;;;;;;;5016041;28;20462;-58
2023/08/04 01:32:56;;;;;;;6.35;3.33;;;;;;;;;;5015583;28;20121;-58
2023/08/04 01:35:22;;;;;;;8.43;3.38;;;;;;;;;;5015649;28;20052;-59
2023/08/04 01:37:48;;;;;;;7.93;3.63;;;;;;;;;;5033221;28;20030;-59
2023/08/04 01:40:13;;;;;;;10.90;3.08;;;;;;;;;;5014688;28;20024;-58
2023/08/04 01:42:39;;;;;;;8.35;3.03;;;;;;;;;;5016914;28;20397;-58
2023/08/04 01:45:05;;;;;;;6.03;3.22;;;;;;;;;;5017190;28;20030;-58
2023/08/04 01:47:30;;;;;;;5.45;2.85;;;;;;;;;;5016816;28;20037;-58
2023/08/04 01:49:55;;;;;;;5.68;2.85;;;;;;;;;;5016558;28;20493;-63
2023/08/04 01:52:22;;;;;;;5.47;2.65;;;;;;;;;;5016487;28;20108;-63
2023/08/04 01:54:47;;;;;;;8.68;3.22;;;;;;;;;;5016713;28;20030;-63
2023/08/04 01:57:13;;;;;;;7.15;2.90;;;;;;;;;;5016387;28;20501;-63
2023/08/04 01:59:39;;;;;;;8.52;3.08;;;;;;;;;;5015403;28;20506;-63
2023/08/04 02:02:06;;;;;;;4.65;2.60;;;;;;;;;;4982566;28;20438;-63
2023/08/04 02:04:31;;;;;;;5.80;2.83;;;;;;;;;;5016316;28;20032;-62
2023/08/04 02:06:56;;;;;;;4.97;3.13;;;;;;;;;;4998455;28;20390;-62
2023/08/04 02:09:22;;;;;;;4.43;2.90;;;;;;;;;;4998240;28;20401;-62
2023/08/04 02:11:48;;;;;;;4.85;2.38;;;;;;;;;;4998345;28;20022;-63
2023/08/04 02:14:14;;;;;;;7.95;2.75;;;;;;;;;;5016209;28;20026;-63
2023/08/04 02:16:39;;;;;;;6.03;2.95;;;;;;;;;;5016330;28;20046;-63
2023/08/04 02:19:07;;;;;;;4.13;2.83;;;;;;;;;;5016058;28;20064;-63
2023/08/04 02:21:33;;;;;;;4.55;2.65;;;;;;;;;;5016002;28;20026;-62
2023/08/04 02:24:00;;;;;;;5.55;2.17;;;;;;;;;;5015847;28;20363;-62
2023/08/04 02:26:26;;;;;;;6.50;2.63;;;;;;;;;;4982196;28;20172;-62
2023/08/04 02:28:52;;;;;;;6.03;2.78;;;;;;;;;;4998112;28;20032;-63
2023/08/04 02:31:19;;;;;;;4.85;2.53;;;;;;;;;;4998250;28;20187;-63
2023/08/04 02:33:45;;;;;;;5.85;2.80;;;;;;;;;;5021807;28;20144;-63
2023/08/04 02:36:11;;;;;;;3.55;2.28;;;;;;;;;;5036163;28;20358;-63
2023/08/04 02:38:36;;;;;;;3.60;2.50;;;;;;;;;;5000836;28;20041;-63
2023/08/04 02:41:04;;;;;;;4.45;2.53;;;;;;;;;;5044124;28;20103;-63
2023/08/04 02:43:30;;;;;;;4.40;2.28;;;;;;;;;;5055521;28;20036;-63
2023/08/04 02:45:56;;;;;;;5.72;2.13;;;;;;;;;;5037354;28;20020;-63
2023/08/04 02:48:22;;;;;;;14.05;2.45;;;;;;;;;;5055393;28;20043;-58
2023/08/04 02:50:56;;;;;;;8.23;2.00;;;;;;;;;;5055302;28;20033;-58
2023/08/04 02:53:21;;;;;;;5.22;2.38;;;;;;;;;;5036746;28;20076;-58
2023/08/04 02:55:47;;;;;;;5.82;2.25;;;;;;;;;;5037143;28;20025;-58
2023/08/04 02:58:12;;;;;;;9.00;2.40;;;;;;;;;;5054975;28;20060;-59
2023/08/04 03:00:38;;;;;;;5.10;2.15;;;;;;;;;;5055093;28;20052;-58
2023/08/04 03:03:03;;;;;;;4.43;2.10;;;;;;;;;;5055396;28;20040;-58
2023/08/04 03:05:29;;;;;;;3.92;2.47;;;;;;;;;;5055109;28;20021;-62
2023/08/04 03:08:01;;;;;;;3.90;2.42;;;;;;;;;;5027128;23;20145;-58
2023/08/04 03:10:26;;;;;;;2.78;2.20;;;;;;;;;;5032592;23;20047;-63
2023/08/04 03:12:52;;;;;;;4.13;2.45;;;;;;;;;;5014810;28;20100;-63
2023/08/04 03:15:19;;;;;;;2.92;2.42;;;;;;;;;;5035000;28;20116;-63
2023/08/04 03:17:44;;;;;;;5.20;2.33;;;;;;;;;;5035170;28;20033;-63
2023/08/04 03:20:10;;;;;;;3.25;2.15;;;;;;;;;;5034858;28;20369;-63
2023/08/04 03:22:35;;;;;;;8.32;2.20;;;;;;;;;;5034817;28;20076;-63
2023/08/04 03:25:01;;;;;;;5.05;2.03;;;;;;;;;;5035257;28;20021;-63
2023/08/04 03:27:27;;;;;;;3.28;1.90;;;;;;;;;;5013975;28;20044;-64
2023/08/04 03:29:52;;;;;;;4.70;2.42;;;;;;;;;;5013417;28;20139;-64
2023/08/04 03:32:18;;;;;;;5.22;2.00;;;;;;;;;;4996848;28;20028;-63
2023/08/04 03:34:43;;;;;;;5.32;2.30;;;;;;;;;;4996898;28;20033;-63
2023/08/04 03:37:08;;;;;;;4.25;2.13;;;;;;;;;;5013953;28;20058;-63
2023/08/04 03:39:34;;;;;;;4.47;2.00;;;;;;;;;;5014424;28;20026;-64
2023/08/04 03:41:59;;;;;;;4.15;2.22;;;;;;;;;;5015081;28;20101;-62
2023/08/04 03:44:24;;;;;;;4.35;1.80;;;;;;;;;;5015189;28;20440;-63
2023/08/04 03:46:50;;;;;;;2.60;1.67;;;;;;;;;;5015229;28;20025;-59
2023/08/04 03:49:15;;;;;;;3.47;1.90;;;;;;;;;;5014649;28;20485;-58
2023/08/04 03:51:41;;;;;;;2.70;1.75;;;;;;;;;;5014247;28;20057;-59
2023/08/04 03:54:06;;;;;;;4.60;1.92;;;;;;;;;;5014723;28;20105;-60
2023/08/04 03:56:31;;;;;;;3.35;1.63;;;;;;;;;;5014794;28;20028;-59
2023/08/04 03:58:57;;;;;;;5.65;1.83;;;;;;;;;;4996534;28;20030;-59
2023/08/04 04:01:22;;;;;;;3.63;1.77;;;;;;;;;;5014645;28;20033;-60
2023/08/04 04:03:47;;;;;;;4.80;2.35;;;;;;;;;;5031959;28;20059;-60
2023/08/04 04:06:13;;;;;;;4.47;2.00;;;;;;;;;;5034070;28;20029;-60
2023/08/04 04:08:38;;;;;;;4.63;2.00;;;;;;;;;;5034198;28;20112;-59
2023/08/04 04:11:04;;;;;;;2.05;1.92;;;;;;;;;;5016168;28;20068;-59
2023/08/04 04:13:29;;;;;;;2.17;1.52;;;;;;;;;;5033961;28;20112;-60
2023/08/04 04:15:54;;;;;;;4.65;1.85;;;;;;;;;;5033746;28;20393;-60
2023/08/04 04:18:20;;;;;;;2.22;1.67;;;;;;;;;;5033001;28;20373;-65
2023/08/04 04:20:45;;;;;;;5.13;2.10;;;;;;;;;;5034001;28;20032;-63
2023/08/04 04:23:10;;;;;;;3.58;1.85;;;;;;;;;;5015518;28;20363;-64
2023/08/04 04:25:36;;;;;;;5.90;3.10;;;;;;;;;;5015869;28;20079;-64
2023/08/04 04:28:01;;;;;;;4.25;2.47;;;;;;;;;;5031982;28;20073;-61
2023/08/04 04:30:26;;;;;;;3.53;2.20;;;;;;;;;;4999693;28;20034;-62
2023/08/04 04:32:52;;;;;;;5.78;2.15;;;;;;;;;;5013892;28;20366;-62
2023/08/04 04:35:17;;;;;;;4.00;1.92;;;;;;;;;;5012751;28;20022;-60
2023/08/04 04:37:42;;;;;;;2.45;1.67;;;;;;;;;;5012844;28;20446;-61
2023/08/04 04:40:08;;;;;;;3.17;1.90;;;;;;;;;;5014002;28;20026;-62
2023/08/04 04:42:33;;;;;;;1.92;1.60;;;;;;;;;;5014013;28;20026;-62
2023/08/04 04:45:00;;;;;;;3.25;1.80;;;;;;;;;;4996621;28;20030;-62
2023/08/04 04:47:25;;;;;;;5.00;1.75;;;;;;;;;;5013797;28;20124;-62
2023/08/04 04:49:50;;;;;;;4.03;2.47;;;;;;;;;;5014033;28;20136;-62
2023/08/04 04:52:30;;;;;;;3.58;2.78;;;;;;;;;;5013535;28;20038;-62
2023/08/04 04:54:55;;;;;;;5.78;3.65;;;;;;;;;;5012985;28;20181;-62
2023/08/04 04:57:21;;;;;;;6.45;3.83;;;;;;;;;;5013262;28;20117;-62
2023/08/04 04:59:46;;;;;;;5.32;3.25;;;;;;;;;;5013259;28;20034;-62
2023/08/04 05:02:11;;;;;;;7.28;3.85;;;;;;;;;;5013181;28;20082;-62
2023/08/04 05:04:37;;;;;;;5.35;3.28;;;;;;;;;;5013183;28;20121;-62
2023/08/04 05:07:03;;;;;;;5.97;2.85;;;;;;;;;;5013150;28;20030;-62
2023/08/04 05:09:28;;;;;;;3.25;2.20;;;;;;;;;;5012980;28;20022;-62
2023/08/04 05:11:53;;;;;;;5.50;2.55;;;;;;;;;;5029080;28;20128;-62
2023/08/04 05:14:18;;;;;;;4.68;3.05;;;;;;;;;;5032945;28;20056;-63
2023/08/04 05:16:45;;;;;;;4.35;2.92;;;;;;;;;;5036687;28;20032;-63
2023/08/04 05:19:10;;;;;;;8.18;3.78;;;;;;;;;;5036956;28;20025;-63
2023/08/04 05:21:41;;;;;;;5.45;3.00;;;;;;;;;;5036016;28;20078;-63
2023/08/04 05:24:07;;;;;;;6.25;3.53;;;;;;;;;;5018633;28;20096;-63
2023/08/04 05:26:32;;;;;;;6.90;2.92;;;;;;;;;;5036216;28;20037;-63
2023/08/04 05:28:57;;;;;;;8.65;3.13;;;;;;;;;;5036961;28;20097;-64
2023/08/04 05:31:23;;;;;;;5.50;2.53;;;;;;;;;;5036748;28;20469;-65
2023/08/04 05:33:48;;;;;;;4.72;2.80;;;;;;;;;;5051620;28;20431;-65
2023/08/04 05:36:13;;;;;;;10.35;3.90;;;;;;;;;;5047075;28;20034;-65
2023/08/04 05:38:39;;;;;;;8.20;3.30;;;;;;;;;;5036165;28;20031;-65
2023/08/04 05:41:05;;;;;;;7.18;3.20;;;;;;;;;;5035355;28;20104;-65
2023/08/04 05:43:30;;;;;;;6.57;3.30;;;;;;;;;;5035145;28;20056;-65
2023/08/04 05:45:58;;;;;;;5.35;2.80;;;;;;;;;;5035541;28;20163;-60
2023/08/04 05:48:23;;;;;;;5.18;3.28;;;;;;;;;;5017407;28;20037;-60
2023/08/04 05:50:49;;;;;;;9.07;3.03;;;;;;;;;;5035127;28;20377;-60
2023/08/04 05:53:14;;;;;;;4.30;3.03;;;;;;;;;;5035160;28;20029;-60
2023/08/04 05:55:39;;;;;;;8.27;3.38;;;;;;;;;;5035819;28;20035;-59
2023/08/04 05:58:05;;;;;;;7.13;3.55;;;;;;;;;;5036175;28;20033;-58
2023/08/04 06:04:05;;;;;;;5.45;2.60;;;;;;;;;;5036384;28;20025;-58
2023/08/04 06:14:24;;;;;;;3.47;2.42;;;;;;;;;;5035881;28;20084;-58
2023/08/04 06:20:38;;;;;;;3.13;2.47;;;;;;;;;;5036081;28;20052;-62
2023/08/04 06:26:38;;;;;;;8.30;3.50;;;;;;;;;;5035702;28;20087;-63
2023/08/04 06:32:39;;;;;;;8.38;5.43;;;;;;;;;;5035671;28;20208;-63
2023/08/04 06:38:40;;;;;;;9.60;4.90;;;;;;;;;;5035792;28;20452;-63
2023/08/04 06:44:41;;;;;;;9.00;3.97;;;;;;;;;;5035653;28;20160;-63
2023/08/04 06:50:42;;;;;;;8.65;4.07;;;;;;;;;;5035279;28;20024;-63
2023/08/04 06:56:42;;;;;;;8.32;3.55;;;;;;;;;;5035397;28;20056;-63
2023/08/04 07:02:46;;;;;;;10.50;3.20;;;;;;;;;;5035266;28;20033;-63
2023/08/04 07:08:47;;;;;;;7.43;3.40;;;;;;;;;;5035217;28;20028;-63
2023/08/04 07:19:15;;;;;;;7.45;3.30;;;;;;;;;;5034971;28;20107;-63
2023/08/04 07:25:16;;;;;;;4.05;2.58;;;;;;;;;;5034818;28;20055;-63
2023/08/04 07:31:17;;;;;;;3.70;2.22;;;;;;;;;;5034723;28;20520;-63
2023/08/04 07:37:17;;;;;;;3.83;2.30;;;;;;;;;;5034176;28;20034;-63
2023/08/04 07:43:18;;;;;;;3.80;2.00;;;;;;;;;;5045133;23;20149;-58
2023/08/04 07:45:43;;;;;;;3.90;2.13;;;;;;;;;;5043533;23;20508;-94
2023/08/04 07:48:09;;;;;;;3.95;2.05;;;;;;;;;;4981068;28;20030;-93
2023/08/04 07:50:35;;;;;;;5.22;2.05;;;;;;;;;;4980931;28;20034;-94
2023/08/04 07:53:00;;;;;;;2.97;1.98;;;;;;;;;;4981211;28;20496;-95
2023/08/04 07:55:27;;;;;;;2.95;2.20;;;;;;;;;;4981305;28;20153;-92
2023/08/04 07:57:52;;;;;;;4.45;2.35;;;;;;;;;;5013702;28;20026;-95
2023/08/04 08:00:17;;;;;;;3.88;2.15;;;;;;;;;;4981315;28;20498;-94
2023/08/04 08:02:46;;;;;;;6.18;2.15;;;;;;;;;;4997933;28;20030;-93
2023/08/04 08:05:11;;;;;;;2.70;1.85;;;;;;;;;;4980847;28;20676;-92
2023/08/04 08:07:36;;;;;;;3.65;1.88;;;;;;;;;;4980731;28;20030;-94
2023/08/04 08:10:02;;;;;;;2.65;1.73;;;;;;;;;;4981155;28;20081;-93
2023/08/04 08:12:27;;;;;;;2.20;1.63;;;;;;;;;;4980385;28;20033;-92
2023/08/04 08:14:53;;;;;;;3.17;2.00;;;;;;;;;;4980878;28;20038;-93
2023/08/04 08:17:18;;;;;;;3.38;1.30;;;;;;;;;;4996845;28;20503;-93
2023/08/04 08:19:44;;;;;;;3.13;1.70;;;;;;;;;;4981241;28;20018;-92
2023/08/04 08:22:09;;;;;;;3.45;1.75;;;;;;;;;;4980200;28;20488;-91
2023/08/04 08:24:34;;;;;;;2.03;1.40;;;;;;;;;;4997360;28;20033;-92
2023/08/04 08:27:00;;;;;;;2.97;1.80;;;;;;;;;;4980894;28;20036;-92
2023/08/04 08:29:25;;;;;;;2.75;1.60;;;;;;;;;;4980569;28;20393;-92
2023/08/04 08:31:51;;;;;;;4.18;1.80;;;;;;;;;;4980889;28;20120;-93
2023/08/04 08:34:16;;;;;;;1.77;1.42;;;;;;;;;;4980723;28;20496;-94
2023/08/04 08:36:41;;;;;;;2.40;1.48;;;;;;;;;;4980559;28;20125;-95
2023/08/04 08:39:07;;;;;;;3.20;1.70;;;;;;;;;;4996568;28;20392;-92
2023/08/04 08:41:32;;;;;;;2.58;1.60;;;;;;;;;;4980670;28;20261;-94
2023/08/04 08:43:58;;;;;;;4.32;1.75;;;;;;;;;;4980808;28;20022;-93
2023/08/04 08:46:23;;;;;;;2.22;1.35;;;;;;;;;;4980303;28;20401;-92
2023/08/04 08:48:49;;;;;;;2.50;1.70;;;;;;;;;;4996706;28;20026;-92
2023/08/04 08:51:16;;;;;;;4.05;1.83;;;;;;;;;;4983704;28;20018;-92
2023/08/04 08:53:43;;;;;;;3.63;1.88;;;;;;;;;;4984688;28;20033;-93
2023/08/04 08:56:09;;;;;;;3.30;1.70;;;;;;;;;;5000676;28;20040;-94
2023/08/04 08:58:36;;;;;;;3.22;1.60;;;;;;;;;;4984385;28;20098;-93
2023/08/04 09:01:01;;;;;;;2.08;1.52;;;;;;;;;;4984396;28;20116;-92
2023/08/04 09:03:27;;;;;;;5.80;1.92;;;;;;;;;;4984584;28;20072;-93
2023/08/04 09:05:53;;;;;;;3.10;1.42;;;;;;;;;;5000640;28;20026;-93
2023/08/04 09:08:18;;;;;;;2.30;1.70;;;;;;;;;;4984220;28;20014;-93
2023/08/04 09:10:44;;;;;;;2.50;1.40;;;;;;;;;;4984394;28;20548;-94
2023/08/04 09:13:11;;;;;;;3.55;1.80;;;;;;;;;;5016716;28;20033;-93
2023/08/04 09:15:47;;;;;;;3.63;1.50;;;;;;;;;;4984161;28;20030;-93
2023/08/04 09:18:23;;;;;;;3.20;1.35;;;;;;;;;;4984471;28;20640;-91
2023/08/04 09:20:56;;;;;;;3.10;1.92;;;;;;;;;;4984095;28;20064;-94
2023/08/04 09:23:21;;;;;;;2.85;1.80;;;;;;;;;;4983903;28;20049;-92
2023/08/04 09:25:53;;;;;;;2.35;1.73;;;;;;;;;;4983749;28;20084;-93
2023/08/04 09:28:19;;;;;;;2.83;1.50;;;;;;;;;;4982005;28;20026;-94
2023/08/04 09:31:03;;;;;;;3.38;1.42;;;;;;;;;;4983899;28;20105;-94
2023/08/04 09:33:28;;;;;;;1.67;1.58;;;;;;;;;;4983709;28;20391;-92
2023/08/04 09:36:03;;;;;;;1.83;1.33;;;;;;;;;;4983568;28;20038;-92
2023/08/04 09:38:29;;;;;;;3.95;1.45;;;;;;;;;;4983435;28;20100;-92
2023/08/04 09:40:59;;;;;;;2.90;1.50;;;;;;;;;;4983630;28;20471;-92
2023/08/04 09:43:24;;;;;;;2.75;1.67;;;;;;;;;;4983960;28;20030;-93
2023/08/04 09:45:54;;;;;;;1.83;1.65;;;;;;;;;;4983044;28;20042;-92
2023/08/04 09:48:24;;;;;;;2.85;1.75;;;;;;;;;;4982311;28;20069;-93
2023/08/04 09:50:49;;;;;;;3.80;1.42;;;;;;;;;;4982457;28;20022;-92
2023/08/04 09:53:15;;;;;;;3.85;1.92;;;;;;;;;;4998334;28;20034;-94
2023/08/04 09:55:41;;;;;;;2.50;1.67;;;;;;;;;;4982042;28;20469;-92
2023/08/04 09:58:07;;;;;;;1.90;1.70;;;;;;;;;;4982182;28;20030;-92
2023/08/04 10:00:32;;;;;;;1.63;1.52;;;;;;;;;;4981776;28;20426;-94
2023/08/04 10:02:58;;;;;;;2.75;1.70;;;;;;;;;;4982152;28;20572;-92
2023/08/04 10:05:24;;;;;;;4.93;1.73;;;;;;;;;;4981932;28;20498;-93
2023/08/04 10:07:49;;;;;;;6.32;1.83;;;;;;;;;;4982213;28;20033;-93
2023/08/04 10:10:15;;;;;;;3.60;1.88;;;;;;;;;;4982224;28;20030;-92
2023/08/04 10:12:40;;;;;;;2.50;1.80;;;;;;;;;;4981671;28;20057;-92
2023/08/04 10:15:07;;;;;;;3.67;1.80;;;;;;;;;;4998184;28;20445;-94
2023/08/04 10:17:33;;;;;;;5.90;2.33;;;;;;;;;;4982061;28;20022;-95
2023/08/04 10:20:05;;;;;;;2.85;1.83;;;;;;;;;;4981809;28;20119;-91
2023/08/04 10:22:31;;;;;;;2.83;1.90;;;;;;;;;;4981433;28;20543;-93
2023/08/04 10:24:57;;;;;;;2.78;1.70;;;;;;;;;;4981780;28;20073;-93
2023/08/04 10:27:22;;;;;;;4.22;2.05;;;;;;;;;;4981513;28;20026;-94
2023/08/04 10:30:08;;;;;;;4.35;1.95;;;;;;;;;;4981595;28;20112;-93
2023/08/04 10:32:36;;;;;;;3.60;1.80;;;;;;;;;;4981003;28;20069;-95
2023/08/04 10:35:03;;;;;;;2.88;1.90;;;;;;;;;;4981979;28;20105;-95
2023/08/04 10:37:29;;;;;;;2.55;1.67;;;;;;;;;;4998227;28;20060;-92
2023/08/04 10:39:58;;;;;;;3.72;1.67;;;;;;;;;;4981659;28;20030;-95
2023/08/04 10:42:28;;;;;;;2.10;1.90;;;;;;;;;;4981370;28;20034;-91
2023/08/04 10:45:05;;;;;;;4.13;1.90;;;;;;;;;;4981391;28;20026;-93
2023/08/04 10:47:53;;;;;;;3.10;1.85;;;;;;;;;;5070694;28;20470;-62
2023/08/04 10:50:19;;;;;;;1.60;1.50;;;;;;;;;;5070712;28;20028;-62
2023/08/04 10:52:45;;;;;;;2.83;1.70;;;;;;;;;;5070691;28;20024;-62
2023/08/04 10:55:12;;;;;;;4.38;1.77;;;;;;;;;;5070594;28;20044;-62
2023/08/04 10:57:37;;;;;;;3.58;1.75;;;;;;;;;;5070475;28;20035;-62
2023/08/04 11:00:05;;;;;;;3.05;2.05;;;;;;;;;;5070570;28;20043;-62
2023/08/04 11:02:31;;;;;;;2.72;1.80;;;;;;;;;;5070485;28;20028;-62
2023/08/04 11:04:57;;;;;;;4.00;2.22;;;;;;;;;;5070679;28;20485;-62
2023/08/04 11:07:23;;;;;;;3.83;1.70;;;;;;;;;;5070344;28;20025;-62
2023/08/04 11:09:51;;;;;;;3.22;1.80;;;;;;;;;;5070324;28;20360;-62
2023/08/04 11:12:17;;;;;;;4.20;2.08;;;;;;;;;;5069095;28;20107;-62
2023/08/04 11:14:43;;;;;;;5.40;1.90;;;;;;;;;;5070231;28;20529;-62
2023/08/04 11:17:18;;;;;;;5.13;1.58;;;;;;;;;;5069028;28;20043;-62
2023/08/04 11:19:44;;;;;;;1.85;1.00;;;;;;;;;;5070102;28;20036;-62
2023/08/04 11:22:13;;;;;;;1.45;1.33;;;;;;;;;;5070065;28;20054;-62
2023/08/04 11:24:39;;;;;;;4.43;1.80;;;;;;;;;;5070065;28;20040;-62
2023/08/04 11:27:04;;;;;;;3.13;1.80;;;;;;;;;;5069861;28;20025;-62
2023/08/04 11:29:30;;;;;;;2.75;1.70;;;;;;;;;;5069955;28;20033;-62
2023/08/04 11:31:55;;;;;;;3.28;1.50;;;;;;;;;;5069895;28;20068;-62
2023/08/04 11:34:22;;;;;;;1.88;1.23;;;;;;;;;;5069795;28;20016;-62
2023/08/04 11:36:48;;;;;;;2.60;1.27;;;;;;;;;;5069784;28;20502;-62
2023/08/04 11:39:13;;;;;;;4.90;1.67;;;;;;;;;;5069665;28;20112;-62
2023/08/04 11:41:41;;;;;;;1.67;1.30;;;;;;;;;;5069728;28;20071;-62
2023/08/04 11:44:09;;;;;;;2.35;1.05;;;;;;;;;;5069641;28;20414;-62
2023/08/04 11:46:34;;;;;;;1.92;1.30;;;;;;;;;;5069299;28;20046;-62
2023/08/04 11:49:01;;;;;;;2.05;1.50;;;;;;;;;;5069493;28;20086;-62
2023/08/04 11:51:27;;;;;;;6.43;1.50;;;;;;;;;;5069438;28;20024;-62
2023/08/04 11:53:52;;;;;;;3.47;1.67;;;;;;;;;;5069371;28;20025;-62
2023/08/04 11:56:17;;;;;;;3.20;1.58;;;;;;;;;;5069330;28;20044;-62
2023/08/04 11:58:47;;;;;;;3.05;1.60;;;;;;;;;;5058627;28;20029;-62
2023/08/04 12:01:28;;;;;;;2.35;1.55;;;;;;;;;;5056106;28;20539;-61
2023/08/04 12:03:54;;;;;;;3.15;1.70;;;;;;;;;;5056022;28;20049;-62
2023/08/04 12:06:20;;;;;;;4.20;1.50;;;;;;;;;;5056000;28;20068;-62
2023/08/04 12:08:51;;;;;;;4.75;1.60;;;;;;;;;;5055955;28;20021;-62
2023/08/04 12:11:17;;;;;;;1.80;1.40;;;;;;;;;;5055941;28;20068;-62
2023/08/04 12:13:43;;;;;;;3.20;1.77;;;;;;;;;;5054827;28;20032;-62
2023/08/04 12:16:08;;;;;;;2.88;1.60;;;;;;;;;;5055808;28;20395;-62
2023/08/04 12:18:34;;;;;;;3.30;1.50;;;;;;;;;;5055698;28;20074;-62
2023/08/04 12:21:10;;;;;;;2.13;1.27;;;;;;;;;;5058498;23;20506;-57
2023/08/04 12:23:37;;;;;;;4.90;1.80;;;;;;;;;;5005694;23;20061;-58
2023/08/04 12:26:03;;;;;;;3.63;1.80;;;;;;;;;;5053614;23;20057;-61
2023/08/04 12:28:28;;;;;;;2.20;1.80;;;;;;;;;;5055527;28;20517;-61
2023/08/04 12:30:53;;;;;;;2.13;1.60;;;;;;;;;;5055489;28;20079;-61
2023/08/04 12:33:19;;;;;;;4.80;2.03;;;;;;;;;;5054659;28;20045;-62
2023/08/04 12:35:45;;;;;;;3.42;1.63;;;;;;;;;;5038150;28;20055;-62
2023/08/04 12:38:12;;;;;;;2.38;1.48;;;;;;;;;;5055645;28;20185;-62
2023/08/04 12:40:41;;;;;;;2.53;1.70;;;;;;;;;;5021125;28;20121;-62
2023/08/04 12:43:08;;;;;;;2.35;1.55;;;;;;;;;;5055725;28;20138;-62
2023/08/04 12:45:34;;;;;;;2.10;1.70;;;;;;;;;;5037566;28;20035;-62
2023/08/04 12:48:00;;;;;;;2.33;1.58;;;;;;;;;;5037570;28;20064;-62
2023/08/04 12:50:26;;;;;;;6.05;2.05;;;;;;;;;;5037292;28;20052;-62
2023/08/04 12:52:51;;;;;;;2.20;1.17;;;;;;;;;;5055152;28;20119;-62
2023/08/04 12:55:19;;;;;;;1.63;1.30;;;;;;;;;;5055635;28;20021;-62
2023/08/04 12:57:45;;;;;;;1.48;1.20;;;;;;;;;;5055567;28;20029;-62
2023/08/04 13:00:10;;;;;;;3.78;1.42;;;;;;;;;;5055243;28;20099;-62
2023/08/04 13:02:36;;;;;;;2.25;1.42;;;;;;;;;;5055203;28;20040;-62
2023/08/04 13:05:03;;;;;;;2.78;1.60;;;;;;;;;;5055445;28;20035;-62
2023/08/04 13:07:28;;;;;;;2.75;1.63;;;;;;;;;;5055613;28;20029;-62
2023/08/04 13:09:53;;;;;;;4.25;1.77;;;;;;;;;;5054326;28;20478;-62
2023/08/04 13:12:18;;;;;;;2.35;1.30;;;;;;;;;;5055254;28;20029;-62
2023/08/04 13:14:44;;;;;;;2.25;1.25;;;;;;;;;;5055498;28;20036;-62
2023/08/04 13:17:09;;;;;;;2.03;1.30;;;;;;;;;;5055210;28;20025;-62
2023/08/04 13:19:34;;;;;;;2.17;1.20;;;;;;;;;;5054835;28;20352;-62
2023/08/04 13:22:00;;;;;;;2.33;1.60;;;;;;;;;;5055107;28;20072;-65
2023/08/04 13:24:25;;;;;;;1.90;1.27;;;;;;;;;;5055001;28;20087;-62
2023/08/04 13:26:52;;;;;;;4.40;1.48;;;;;;;;;;5054570;28;20045;-62
2023/08/04 13:29:17;;;;;;;1.70;1.35;;;;;;;;;;5054987;28;20028;-61
2023/08/04 13:31:42;;;;;;;3.20;1.52;;;;;;;;;;5036804;28;20009;-61
2023/08/04 13:34:08;;;;;;;2.70;1.25;;;;;;;;;;5054581;28;20040;-61
2023/08/04 13:36:33;;;;;;;2.35;1.63;;;;;;;;;;5037371;28;20043;-61
2023/08/04 13:38:58;;;;;;;2.15;1.40;;;;;;;;;;5055071;28;20032;-61
2023/08/04 13:41:24;;;;;;;1.55;1.35;;;;;;;;;;5054718;28;20116;-61
2023/08/04 13:43:49;;;;;;;2.15;1.30;;;;;;;;;;5036557;28;20060;-62
2023/08/04 13:46:14;;;;;;;2.25;1.38;;;;;;;;;;5054235;28;20074;-61
2023/08/04 13:48:40;;;;;;;4.40;1.73;;;;;;;;;;5046579;28;20025;-61
2023/08/04 13:51:05;;;;;;;3.50;1.40;;;;;;;;;;5025979;28;20014;-61
2023/08/04 13:53:31;;;;;;;2.00;1.17;;;;;;;;;;5042926;28;20033;-61
2023/08/04 13:56:00;;;;;;;2.50;1.50;;;;;;;;;;5052820;28;20498;-61
2023/08/04 13:58:26;;;;;;;4.88;2.00;;;;;;;;;;5036300;28;20119;-61
2023/08/04 14:00:58;;;;;;;3.35;1.58;;;;;;;;;;5054154;28;20152;-61
2023/08/04 14:03:24;;;;;;;3.17;1.50;;;;;;;;;;5036678;28;20107;-61
2023/08/04 14:05:54;;;;;;;6.60;2.35;;;;;;;;;;5054286;28;20132;-61
2023/08/04 14:08:20;;;;;;;3.58;1.95;;;;;;;;;;5054818;28;20027;-61
2023/08/04 14:10:46;;;;;;;5.43;2.38;;;;;;;;;;5054222;28;20519;-61
2023/08/04 14:13:11;;;;;;;5.70;2.03;;;;;;;;;;5053913;28;20486;-61
2023/08/04 14:15:36;;;;;;;3.97;1.92;;;;;;;;;;5054125;28;20121;-61
2023/08/04 14:18:02;;;;;;;2.80;1.63;;;;;;;;;;5054148;28;20032;-61
2023/08/04 14:20:27;;;;;;;5.53;1.95;;;;;;;;;;5054158;28;20031;-61
2023/08/04 14:22:53;;;;;;;4.13;2.13;;;;;;;;;;5054433;28;20025;-61
2023/08/04 14:25:18;;;;;;;4.40;1.98;;;;;;;;;;5053965;28;20045;-61
2023/08/04 14:27:43;;;;;;;6.03;2.40;;;;;;;;;;5054216;28;20075;-61
2023/08/04 14:30:09;;;;;;;6.88;2.72;;;;;;;;;;5054003;28;20025;-61
2023/08/04 14:32:36;;;;;;;5.00;2.17;;;;;;;;;;5053679;28;20383;-61
2023/08/04 14:35:01;;;;;;;5.50;2.30;;;;;;;;;;5035740;28;20533;-61
2023/08/04 14:37:26;;;;;;;8.55;2.70;;;;;;;;;;5053903;28;20032;-61
2023/08/04 14:39:52;;;;;;;5.00;2.30;;;;;;;;;;5053833;28;20033;-61
2023/08/04 14:42:17;;;;;;;6.07;2.20;;;;;;;;;;5054359;28;20027;-61
2023/08/04 14:44:43;;;;;;;3.92;2.20;;;;;;;;;;5053831;28;20036;-61
2023/08/04 14:47:08;;;;;;;5.15;2.65;;;;;;;;;;5053427;28;20459;-61
2023/08/04 14:49:33;;;;;;;3.42;2.15;;;;;;;;;;5042617;28;20022;-61
2023/08/04 14:51:59;;;;;;;6.10;2.08;;;;;;;;;;5022798;28;20037;-61
2023/08/04 14:54:24;;;;;;;5.88;2.38;;;;;;;;;;5035688;28;20036;-61
2023/08/04 14:56:50;;;;;;;3.95;2.30;;;;;;;;;;5035989;28;20056;-61
2023/08/04 14:59:16;;;;;;;5.38;2.10;;;;;;;;;;5035439;28;20143;-61
2023/08/04 15:01:41;;;;;;;6.07;1.98;;;;;;;;;;5053785;28;20497;-61
2023/08/04 15:04:06;;;;;;;3.58;1.67;;;;;;;;;;5053273;28;20532;-61
2023/08/04 15:06:32;;;;;;;4.35;2.05;;;;;;;;;;5053408;28;20444;-61
2023/08/04 15:08:57;;;;;;;2.50;1.60;;;;;;;;;;5036150;28;20096;-61
2023/08/04 15:11:22;;;;;;;2.30;1.90;;;;;;;;;;5053666;28;20375;-61
2023/08/04 15:13:48;;;;;;;3.35;1.73;;;;;;;;;;5053364;28;20032;-61
2023/08/04 15:16:13;;;;;;;2.17;1.35;;;;;;;;;;5053161;28;20475;-61
2023/08/04 15:18:39;;;;;;;1.90;1.50;;;;;;;;;;5053829;28;20082;-61
2023/08/04 15:21:04;;;;;;;9.57;1.42;;;;;;;;;;5035282;28;20043;-62
2023/08/04 15:23:30;;;;;;;1.60;1.20;;;;;;;;;;5053227;28;20501;-62
2023/08/04 15:25:56;;;;;;;1.55;1.02;;;;;;;;;;5053073;28;20136;-62
2023/08/04 15:28:21;;;;;;;2.38;1.30;;;;;;;;;;5053229;28;20065;-62
2023/08/04 15:30:47;;;;;;;2.08;1.30;;;;;;;;;;5052961;28;20062;-62
2023/08/04 15:33:12;;;;;;;3.35;1.30;;;;;;;;;;5054637;28;20368;-62
2023/08/04 15:35:38;;;;;;;2.25;1.38;;;;;;;;;;5056765;28;20022;-62
2023/08/04 15:38:03;;;;;;;4.10;1.60;;;;;;;;;;5038813;28;20033;-62
2023/08/04 15:40:30;;;;;;;4.32;1.38;;;;;;;;;;5056881;28;20045;-62
2023/08/04 15:42:55;;;;;;;1.35;1.20;;;;;;;;;;5057000;28;20425;-66